createdAt,value
2022-12-18T00:02:30.788Z,20.40
2022-12-18T00:05:32.425Z,21.50
2022-12-18T00:08:34.662Z,24.17
2022-12-18T00:11:36.257Z,22.40
2022-12-18T00:14:37.900Z,20.80
2022-12-18T00:17:43.266Z,22.70
2022-12-18T00:20:44.900Z,21.33
2022-12-18T00:23:48.448Z,21.77
2022-12-18T00:26:50.041Z,20.07
2022-12-18T00:29:51.648Z,20.53
2022-12-18T00:32:53.281Z,40.73
2022-12-18T00:35:54.895Z,33.77
2022-12-18T00:38:57.883Z,25.20
2022-12-18T00:42:19.513Z,19.77
2022-12-18T00:45:21.227Z,18.63
2022-12-18T00:48:22.960Z,19.70
2022-12-18T00:51:25.486Z,19.93
2022-12-18T00:54:27.142Z,19.77
2022-12-18T00:57:28.754Z,18.33
2022-12-18T01:00:30.406Z,21.10
2022-12-18T01:03:32.062Z,20.50
2022-12-18T01:06:33.794Z,19.30
2022-12-18T01:09:36.179Z,17.93
2022-12-18T01:12:37.838Z,18.90
2022-12-18T01:15:39.814Z,18.50
2022-12-18T01:18:41.614Z,17.50
2022-12-18T01:21:43.200Z,19.97
2022-12-18T01:24:44.804Z,18.20
2022-12-18T01:27:46.433Z,19.33
2022-12-18T01:30:48.046Z,18.63
2022-12-18T01:33:51.091Z,19.13
2022-12-18T01:36:53.097Z,17.53
2022-12-18T01:39:55.562Z,19.03
2022-12-18T01:42:57.188Z,18.50
2022-12-18T01:46:00.779Z,18.40
2022-12-18T01:49:02.866Z,19.60
2022-12-18T01:52:04.510Z,16.83
2022-12-18T01:55:07.720Z,18.77
2022-12-18T01:58:09.357Z,17.00
2022-12-18T02:04:23.713Z,19.47
2022-12-18T02:07:36.860Z,19.30
2022-12-18T02:10:52.812Z,17.47
2022-12-18T02:13:57.734Z,19.00
2022-12-18T02:17:05.907Z,18.07
2022-12-18T02:20:23.752Z,19.13
2022-12-18T02:23:56.088Z,19.53
2022-12-18T02:27:01.760Z,17.23
2022-12-18T02:30:05.939Z,18.13
2022-12-18T02:33:09.538Z,17.90
2022-12-18T02:36:13.805Z,16.87
2022-12-18T02:39:16.768Z,19.07
2022-12-18T02:42:19.565Z,18.90
2022-12-18T02:45:21.245Z,18.43
2022-12-18T02:48:29.035Z,17.30
2022-12-18T02:51:43.218Z,17.13
2022-12-18T02:54:53.390Z,17.60
2022-12-18T02:58:13.570Z,17.70
2022-12-18T03:01:25.242Z,18.43
2022-12-18T03:04:35.288Z,18.80
2022-12-18T03:07:47.380Z,17.77
2022-12-18T03:11:08.559Z,17.73
2022-12-18T03:14:12.326Z,18.67
2022-12-18T03:17:18.535Z,18.97
2022-12-18T03:20:25.733Z,18.87
2022-12-18T03:23:32.106Z,18.73
2022-12-18T03:26:35.630Z,18.83
2022-12-18T03:29:41.774Z,19.70
2022-12-18T03:33:20.398Z,17.67
2022-12-18T03:36:22.432Z,18.27
2022-12-18T03:39:25.432Z,20.60
2022-12-18T03:42:40.206Z,18.67
2022-12-18T03:45:54.856Z,21.00
2022-12-18T03:49:17.044Z,21.13
2022-12-18T03:52:29.839Z,20.00
2022-12-18T03:55:35.509Z,17.70
2022-12-18T03:58:39.699Z,19.27
2022-12-18T04:01:48.473Z,19.73
2022-12-18T04:04:54.387Z,21.00
2022-12-18T04:07:57.227Z,20.10
2022-12-18T04:10:58.969Z,20.50
2022-12-18T04:14:03.583Z,20.33
2022-12-18T04:17:09.107Z,18.83
2022-12-18T04:20:11.312Z,17.97
2022-12-18T04:23:12.878Z,19.30
2022-12-18T04:26:14.539Z,17.70
2022-12-18T04:29:16.191Z,18.60
2022-12-18T04:32:17.803Z,16.70
2022-12-18T04:35:19.573Z,17.67
2022-12-18T04:38:21.174Z,17.87
2022-12-18T04:41:22.878Z,17.73
2022-12-18T04:44:24.471Z,16.30
2022-12-18T04:47:26.222Z,16.40
2022-12-18T04:50:28.308Z,16.30
2022-12-18T04:53:29.940Z,16.40
2022-12-18T04:56:32.762Z,17.27
2022-12-18T04:59:34.435Z,18.97
2022-12-18T05:02:36.240Z,17.50
2022-12-18T05:05:37.978Z,17.60
2022-12-18T05:08:39.669Z,16.20
2022-12-18T05:11:41.660Z,17.13
2022-12-18T05:14:43.333Z,15.57
2022-12-18T05:17:45.537Z,16.90
2022-12-18T05:20:47.131Z,17.27
2022-12-18T05:23:48.780Z,15.67
2022-12-18T05:26:51.136Z,17.27
2022-12-18T05:29:52.774Z,16.07
2022-12-18T05:32:54.577Z,17.60
2022-12-18T05:36:01.896Z,16.47
2022-12-18T05:39:04.141Z,15.90
2022-12-18T05:42:06.078Z,15.80
2022-12-18T05:45:08.401Z,17.13
2022-12-18T05:48:13.226Z,16.40
2022-12-18T05:51:17.549Z,17.10
2022-12-18T05:54:19.124Z,19.23
2022-12-18T05:57:20.892Z,16.83
2022-12-18T06:00:22.559Z,16.77
2022-12-18T06:03:29.277Z,18.40
2022-12-18T06:06:33.917Z,17.50
2022-12-18T06:09:35.504Z,17.80
2022-12-18T06:12:37.117Z,18.60
2022-12-18T06:15:39.139Z,17.17
2022-12-18T06:18:40.741Z,18.07
2022-12-18T06:21:42.498Z,18.03
2022-12-18T06:24:44.042Z,17.40
2022-12-18T06:27:48.933Z,18.07
2022-12-18T06:30:50.779Z,16.97
2022-12-18T06:33:52.548Z,18.20
2022-12-18T06:36:54.126Z,16.83
2022-12-18T06:39:57.394Z,17.00
2022-12-18T06:42:59.071Z,15.50
2022-12-18T06:46:01.918Z,16.33
2022-12-18T06:49:03.616Z,19.10
2022-12-18T06:52:05.197Z,18.63
2022-12-18T06:55:11.546Z,19.13
2022-12-18T06:58:13.196Z,14.23
2022-12-18T07:01:15.288Z,18.90
2022-12-18T07:04:17.078Z,17.10
2022-12-18T07:07:19.096Z,18.80
2022-12-18T07:10:20.683Z,18.47
2022-12-18T07:13:22.470Z,15.97
2022-12-18T07:16:25.546Z,16.47
2022-12-18T07:19:27.632Z,18.27
2022-12-18T07:22:29.256Z,18.53
2022-12-18T07:25:30.850Z,18.50
2022-12-18T07:28:33.699Z,19.63
2022-12-18T07:31:35.340Z,22.20
2022-12-18T07:34:38.151Z,20.70
2022-12-18T07:37:39.746Z,23.30
2022-12-18T07:40:41.302Z,18.77
2022-12-18T07:43:43.704Z,21.00
2022-12-18T07:46:45.650Z,22.40
2022-12-18T07:49:47.269Z,24.90
2022-12-18T07:52:48.896Z,23.23
2022-12-18T07:56:25.522Z,26.00
2022-12-18T07:59:16.892Z,23.90
2022-12-18T08:02:18.684Z,24.00
2022-12-18T08:05:21.692Z,21.73
2022-12-18T08:08:23.349Z,26.30
2022-12-18T08:11:26.735Z,23.83
2022-12-18T08:14:28.410Z,22.43
2022-12-18T08:17:30.040Z,22.67
2022-12-18T08:20:31.677Z,23.93
2022-12-18T08:23:42.074Z,20.60
2022-12-18T08:27:00.891Z,22.00
2022-12-18T08:30:07.086Z,21.13
2022-12-18T08:33:09.085Z,22.73
2022-12-18T08:36:11.494Z,21.97
2022-12-18T08:39:13.174Z,22.47
2022-12-18T08:42:33.426Z,21.97
2022-12-18T08:45:35.325Z,20.20
2022-12-18T08:48:36.961Z,28.70
2022-12-18T08:51:39.005Z,25.57
2022-12-18T08:54:40.705Z,24.70
2022-12-18T08:57:42.350Z,21.37
2022-12-18T09:00:44.152Z,24.93
2022-12-18T09:03:45.868Z,25.93
2022-12-18T09:06:47.752Z,25.50
2022-12-18T09:09:49.417Z,25.80
2022-12-18T09:12:51.017Z,24.80
2022-12-18T09:15:54.354Z,23.63
2022-12-18T09:19:00.467Z,24.10
2022-12-18T09:22:02.126Z,25.37
2022-12-18T09:25:03.988Z,26.77
2022-12-18T09:28:16.276Z,24.70
2022-12-18T09:31:19.962Z,23.57
2022-12-18T09:34:24.573Z,24.80
2022-12-18T09:37:26.158Z,24.30
2022-12-18T09:40:35.165Z,23.20
2022-12-18T09:43:43.987Z,23.07
2022-12-18T09:47:03.277Z,23.43
2022-12-18T09:50:30.864Z,23.17
2022-12-18T09:53:38.336Z,21.40
2022-12-18T09:56:44.073Z,25.70
2022-12-18T09:59:53.910Z,22.27
2022-12-18T10:03:04.357Z,23.47
2022-12-18T10:06:22.265Z,23.50
2022-12-18T10:09:38.177Z,20.80
2022-12-18T10:12:52.039Z,21.70
2022-12-18T10:16:09.744Z,22.80
2022-12-18T10:19:25.043Z,22.53
2022-12-18T10:22:35.894Z,25.40
2022-12-18T10:26:04.037Z,24.17
2022-12-18T10:29:13.146Z,23.27
2022-12-18T10:32:21.116Z,24.80
2022-12-18T10:35:27.865Z,23.17
2022-12-18T10:38:32.568Z,24.77
2022-12-18T10:41:34.380Z,24.33
2022-12-18T10:44:35.952Z,24.17
2022-12-18T10:47:42.590Z,25.53
2022-12-18T10:51:10.441Z,27.33
2022-12-18T10:54:37.247Z,23.93
2022-12-18T10:57:42.322Z,25.50
2022-12-18T11:00:43.925Z,26.47
2022-12-18T11:03:48.393Z,25.10
2022-12-18T11:07:05.123Z,23.30
2022-12-18T11:10:16.535Z,25.83
2022-12-18T11:13:21.586Z,23.77
2022-12-18T11:16:24.709Z,24.63
2022-12-18T11:19:42.485Z,25.77
2022-12-18T11:22:44.240Z,23.40
2022-12-18T11:26:02.553Z,25.60
2022-12-18T11:29:16.438Z,26.13
2022-12-18T11:32:35.009Z,26.80
2022-12-18T11:35:59.743Z,26.93
2022-12-18T11:39:35.255Z,26.93
2022-12-18T11:42:43.663Z,24.33
2022-12-18T11:46:00.411Z,25.33
2022-12-18T11:49:13.970Z,24.40
2022-12-18T11:52:29.425Z,25.50
2022-12-18T11:55:49.786Z,26.80
2022-12-18T11:58:58.218Z,27.47
2022-12-18T12:02:20.699Z,25.30
2022-12-18T12:05:39.244Z,28.00
2022-12-18T12:08:46.504Z,27.20
2022-12-18T12:12:03.189Z,26.50
2022-12-18T12:15:30.920Z,25.63
2022-12-18T12:19:16.581Z,26.87
2022-12-18T12:22:45.777Z,27.00
2022-12-18T12:25:54.419Z,27.77
2022-12-18T12:29:20.956Z,29.17
2022-12-18T12:32:44.608Z,27.50
2022-12-18T12:36:01.083Z,25.93
2022-12-18T12:39:09.103Z,28.67
2022-12-18T12:42:45.836Z,25.23
2022-12-18T12:45:53.240Z,27.47
2022-12-18T12:49:02.041Z,28.20
2022-12-18T12:52:13.290Z,28.03
2022-12-18T12:55:29.658Z,27.53
2022-12-18T12:58:58.634Z,27.07
2022-12-18T13:02:22.831Z,27.80
2022-12-18T13:05:44.506Z,25.63
2022-12-18T13:08:56.000Z,26.33
2022-12-18T13:12:23.829Z,56.97
2022-12-18T13:15:39.878Z,27.37
2022-12-18T13:18:56.230Z,30.30
2022-12-18T13:21:58.089Z,35.00
2022-12-18T13:25:00.781Z,30.47
2022-12-18T13:28:37.362Z,30.73
2022-12-18T13:31:42.078Z,28.60
2022-12-18T13:34:44.323Z,28.70
2022-12-18T13:37:54.183Z,31.87
2022-12-18T13:40:58.046Z,31.90
2022-12-18T13:44:21.610Z,35.33
2022-12-18T13:47:33.132Z,34.40
2022-12-18T13:50:36.791Z,27.00
2022-12-18T13:53:45.482Z,28.63
2022-12-18T13:56:49.013Z,27.67
2022-12-18T13:59:50.834Z,29.57
2022-12-18T14:02:57.285Z,29.53
2022-12-18T14:06:08.588Z,32.20
2022-12-18T14:09:20.325Z,34.47
2022-12-18T14:12:48.274Z,30.60
2022-12-18T14:15:51.041Z,26.83
2022-12-18T14:18:59.826Z,24.73
2022-12-18T14:22:06.063Z,24.70
2022-12-18T14:25:13.755Z,21.40
2022-12-18T14:28:16.422Z,21.70
2022-12-18T14:31:26.539Z,20.53
2022-12-18T14:34:28.197Z,23.73
2022-12-18T14:37:29.898Z,20.47
2022-12-18T14:40:31.830Z,23.03
2022-12-18T14:43:36.125Z,21.93
2022-12-18T14:46:43.579Z,23.40
2022-12-18T14:49:45.442Z,22.03
2022-12-18T14:52:47.164Z,23.63
2022-12-18T14:55:49.749Z,21.80
2022-12-18T14:59:02.684Z,21.73
2022-12-18T15:02:22.183Z,22.40
2022-12-18T15:05:29.845Z,21.90
2022-12-18T15:08:36.674Z,18.43
2022-12-18T15:11:41.505Z,22.80
2022-12-18T15:14:43.297Z,20.47
2022-12-18T15:17:45.034Z,21.40
2022-12-18T15:20:50.970Z,22.37
2022-12-18T15:23:53.409Z,23.43
2022-12-18T15:26:55.214Z,21.93
2022-12-18T15:30:08.951Z,23.23
2022-12-18T15:33:27.095Z,22.23
2022-12-18T15:36:28.753Z,24.23
2022-12-18T15:39:30.400Z,24.23
2022-12-18T15:42:50.549Z,23.53
2022-12-18T15:45:52.603Z,24.00
2022-12-18T15:49:04.529Z,25.43
2022-12-18T15:52:06.860Z,27.60
2022-12-18T15:55:39.228Z,33.70
2022-12-18T15:58:42.014Z,33.37
2022-12-18T16:01:46.924Z,30.07
2022-12-18T16:04:48.815Z,30.00
2022-12-18T16:07:50.387Z,29.43
2022-12-18T16:10:51.990Z,32.10
2022-12-18T16:13:53.582Z,32.40
2022-12-18T16:17:01.577Z,35.47
2022-12-18T16:20:03.354Z,36.10
2022-12-18T16:23:05.191Z,39.27
2022-12-18T16:26:06.756Z,34.67
2022-12-18T16:29:08.643Z,33.93
2022-12-18T16:32:17.691Z,35.43
2022-12-18T16:35:19.446Z,37.20
2022-12-18T16:38:21.102Z,37.97
2022-12-18T16:41:32.332Z,34.30
2022-12-18T16:44:35.065Z,35.67
2022-12-18T16:47:37.723Z,36.10
2022-12-18T16:50:39.378Z,33.57
2022-12-18T16:53:42.622Z,36.33
2022-12-18T16:56:45.264Z,35.43
2022-12-18T16:59:47.203Z,35.73
2022-12-18T17:02:48.913Z,33.67
2022-12-18T17:05:53.229Z,35.47
2022-12-18T17:08:59.194Z,37.70
2022-12-18T17:12:04.280Z,34.40
2022-12-18T17:15:06.945Z,32.00
2022-12-18T17:18:08.503Z,35.60
2022-12-18T17:21:12.136Z,39.40
2022-12-18T17:24:13.870Z,40.57
2022-12-18T17:27:15.647Z,36.40
2022-12-18T17:30:17.342Z,39.73
2022-12-18T17:33:19.198Z,44.93
2022-12-18T17:36:23.997Z,40.60
2022-12-18T17:39:25.738Z,41.77
2022-12-18T17:42:27.349Z,45.67
2022-12-18T17:45:28.993Z,46.43
2022-12-18T17:48:30.923Z,45.10
2022-12-18T17:51:32.578Z,35.23
2022-12-18T17:54:35.372Z,32.90
2022-12-18T17:57:37.055Z,31.63
2022-12-18T18:00:39.481Z,35.20
2022-12-18T18:03:42.154Z,34.13
2022-12-18T18:06:44.420Z,41.93
2022-12-18T18:09:46.211Z,43.30
2022-12-18T18:13:06.584Z,46.90
2022-12-18T18:16:09.586Z,36.37
2022-12-18T18:19:20.705Z,42.33
2022-12-18T18:22:23.052Z,41.90
2022-12-18T18:25:26.077Z,35.17
2022-12-18T18:28:28.277Z,33.50
2022-12-18T18:31:31.560Z,32.03
2022-12-18T18:34:33.381Z,34.10
2022-12-18T18:37:35.086Z,35.17
2022-12-18T18:40:36.719Z,32.60
2022-12-18T18:43:38.589Z,30.87
2022-12-18T18:46:40.485Z,30.90
2022-12-18T18:49:42.108Z,31.73
2022-12-18T18:52:43.772Z,31.13
2022-12-18T18:55:51.745Z,32.40
2022-12-18T18:59:05.827Z,33.60
2022-12-18T19:02:12.064Z,32.20
2022-12-18T19:05:13.992Z,31.37
2022-12-18T19:08:15.642Z,32.77
2022-12-18T19:11:36.717Z,32.37
2022-12-18T19:14:38.485Z,30.20
2022-12-18T19:17:40.114Z,29.67
2022-12-18T19:20:42.038Z,33.20
2022-12-18T19:23:44.780Z,34.53
2022-12-18T19:26:46.483Z,32.57
2022-12-18T19:29:49.295Z,32.50
2022-12-18T19:32:51.088Z,34.50
2022-12-18T19:35:53.022Z,32.60
2022-12-18T19:38:57.735Z,31.97
2022-12-18T19:41:59.382Z,33.87
2022-12-18T19:45:01.066Z,33.17
2022-12-18T19:48:04.605Z,32.40
2022-12-18T19:51:20.923Z,35.13
2022-12-18T19:54:22.623Z,32.37
2022-12-18T19:57:24.256Z,31.70
2022-12-18T20:00:25.869Z,32.40
2022-12-18T20:03:32.307Z,31.30
2022-12-18T20:06:50.035Z,32.80
2022-12-18T20:09:59.585Z,33.07
2022-12-18T20:13:06.409Z,30.53
2022-12-18T20:16:08.273Z,29.80
2022-12-18T20:19:11.960Z,31.00
2022-12-18T20:22:13.963Z,32.33
2022-12-18T20:25:16.084Z,33.27
2022-12-18T20:28:17.822Z,36.43
2022-12-18T20:31:19.967Z,33.80
2022-12-18T20:34:22.029Z,34.33
2022-12-18T20:37:24.400Z,35.50
2022-12-18T20:40:26.581Z,33.07
2022-12-18T20:43:31.011Z,33.20
2022-12-18T20:46:32.583Z,33.87
2022-12-18T20:49:34.233Z,35.00
2022-12-18T20:52:35.818Z,32.97
2022-12-18T20:55:42.901Z,33.40
2022-12-18T20:58:45.026Z,32.43
2022-12-18T21:01:48.856Z,32.80
2022-12-18T21:04:51.017Z,34.90
2022-12-18T21:07:52.606Z,35.70
2022-12-18T21:10:54.340Z,35.43
2022-12-18T21:13:58.670Z,32.60
2022-12-18T21:17:01.752Z,33.73
2022-12-18T21:20:03.764Z,33.50
2022-12-18T21:23:15.610Z,33.37
2022-12-18T21:26:24.312Z,33.73
2022-12-18T21:29:26.603Z,35.17
2022-12-18T21:32:28.491Z,34.80
2022-12-18T21:35:33.648Z,32.20
2022-12-18T21:38:37.139Z,35.63
2022-12-18T21:41:57.637Z,36.03
2022-12-18T21:44:59.500Z,33.13
2022-12-18T21:48:01.248Z,36.23
2022-12-18T21:51:02.892Z,34.40
2022-12-18T21:54:06.742Z,33.70
2022-12-18T21:57:08.577Z,32.80
2022-12-18T22:00:19.298Z,34.70
2022-12-18T22:03:21.675Z,32.10
2022-12-18T22:06:23.374Z,31.63
2022-12-18T22:09:25.315Z,33.33
2022-12-18T22:12:43.138Z,29.60
2022-12-18T22:15:45.524Z,30.60
2022-12-18T22:18:47.225Z,30.33
2022-12-18T22:21:49.285Z,31.03
2022-12-18T22:24:50.931Z,33.10
2022-12-18T22:28:11.066Z,33.83
2022-12-18T22:31:12.800Z,34.70
2022-12-18T22:34:14.665Z,36.27
2022-12-18T22:37:16.308Z,36.30
2022-12-18T22:40:24.100Z,34.77
2022-12-18T22:43:27.073Z,34.93
2022-12-18T22:46:32.788Z,34.93
2022-12-18T22:49:35.668Z,34.17
2022-12-18T22:52:37.510Z,35.37
2022-12-18T22:55:43.693Z,35.47
2022-12-18T22:58:49.468Z,36.63
2022-12-18T23:01:58.393Z,35.50
2022-12-18T23:05:00.889Z,36.70
2022-12-18T23:08:02.591Z,35.87
2022-12-18T23:11:05.582Z,36.70
2022-12-18T23:14:07.202Z,37.00
2022-12-18T23:17:08.808Z,37.67
2022-12-18T23:20:10.830Z,36.37
2022-12-18T23:23:12.579Z,35.37
2022-12-18T23:26:19.997Z,35.93
2022-12-18T23:29:21.658Z,35.30
2022-12-18T23:32:23.362Z,36.10
2022-12-18T23:35:25.170Z,36.47
2022-12-18T23:38:27.321Z,34.20
2022-12-18T23:41:30.696Z,31.90
2022-12-18T23:44:32.320Z,33.63
2022-12-18T23:47:34.073Z,32.87
2022-12-18T23:50:35.919Z,30.57
2022-12-18T23:53:37.552Z,34.37
2022-12-18T23:56:39.238Z,32.50
2022-12-18T23:59:40.935Z,34.47
